If you wish to contribute or participate in the discussions about articles you are invited to join SKYbrary as a registered user

 Actions

Luanda/Quatro de Fevereiro Airport

From SKYbrary Wiki

FNLU
Airport
ICAO: FNLU – IATA: LAD
Summary
Name Luanda/Quatro de Fevereiro Airport
Region Africa
Territory Angola AO.gif
Location Luanda, Luanda
Serving Luanda
Elevation 74.066 m
243 ft
243 ft74.066 m
Coordinates 8° 51' 30.15" S, 13° 13' 52.24" E
Runways
Designator Length Width Surface ROPS
5/23 3716 m12,191.601 ft
45 m147.638 ft
ASP yes/yes
7/25 2600 m8,530.184 ft
60 m196.85 ft
ASP yes/yes


METAR
Observation FNLU 241800Z 24005KT 9999 FEW020 SCT090 28/23 Q1011
Station Luanda
Date/Time 24 April 2019 18:00:00
Wind direction 240°
Wind speed 05 kts
Lowest cloud amount few clouds
Temperature 28°C
Dew point 23°C
Humidity 74%
QNH 1011 hPa
Weather condition n/a

Maps

Terrain

Loading map...

Airport Layout

Loading map...


Accidents & Serious Incidents at or in vicinity of FNLU

None on SKYbrary